Time;durP1;ratioP1;P1;durP2;ratioP2;P2;SDS_P1;SDS_P2;PMS_P1;PMS_P2;Temp;Humidity;BMP_temperature;BMP_pressure;BME280_temperature;BME280_humidity;BME280_pressure;Samples;Min_cycle;Max_cycle;Signal;HPM_P1;HPM_P2
2021/12/04 00:04:52;;;;;;;;;;;;;;;4.05;92.44238;100019.8;;;;-82
2021/12/04 00:07:04;;;;;;;23.3;9.2;;;;;;;;;;;;;-81
2021/12/04 00:09:50;;;;;;;;;;;;;;;4.05;92.37695;100013.8;;;;-81
2021/12/04 00:14:50;;;;;;;;;;;;;;;4.05;92.42969;100009.7;;;;-80
2021/12/04 00:19:50;;;;;;;;;;;;;;;4.05;92.25781;99997.76;;;;-81
2021/12/04 00:24:50;;;;;;;;;;;;;;;4.05;92.35547;100006.2;;;;-80
2021/12/04 00:29:50;;;;;;;;;;;;;;;4.05;92.3877;99999.86;;;;-79
2021/12/04 00:34:55;;;;;;;;;;;;;;;4.05;92.46191;100007.3;;;;-81
2021/12/04 00:49:50;;;;;;;;;;;;;;;4.05;92.5293;99986.33;;;;-80
2021/12/04 00:54:50;;;;;;;;;;;;;;;4.04;92.57129;99977.47;;;;-80
2021/12/04 00:59:50;;;;;;;;;;;;;;;4.05;92.44238;99978.81;;;;-82
2021/12/04 01:04:50;;;;;;;;;;;;;;;4.05;92.48633;99975.68;;;;-80
2021/12/04 01:07:03;;;;;;;25.3;9.6;;;;;;;;;;;;;-81
2021/12/04 01:09:50;;;;;;;;;;;;;;;4.06;92.36621;99978.5;;;;-80
2021/12/04 01:14:50;;;;;;;;;;;;;;;4.06;92.34473;99975.72;;;;-80
2021/12/04 01:19:50;;;;;;;;;;;;;;;4.06;92.3125;99973.27;;;;-81
2021/12/04 01:24:50;;;;;;;;;;;;;;;4.06;92.14941;99951.16;;;;-80
2021/12/04 01:29:51;;;;;;;;;;;;;;;4.06;92.26855;99949.85;;;;-80
2021/12/04 01:34:50;;;;;;;;;;;;;;;4.06;92.20508;99945.16;;;;-80
2021/12/04 01:37:01;;;;;;;28.5;10;;;;;;;;;;;;;-80
2021/12/04 01:39:50;;;;;;;;;;;;;;;4.06;92.25781;99942.02;;;;-82
2021/12/04 01:44:51;;;;;;;;;;;;;;;4.07;92.27246;99951.01;;;;-81
2021/12/04 01:49:58;;;;;;;;;;;;;;;4.07;92.19629;99938.7;;;;-80
2021/12/04 01:54:51;;;;;;;;;;;;;;;4.07;92.34863;99942.55;;;;-81
2021/12/04 01:59:50;;;;;;;;;;;;;;;4.08;92.5459;99945.08;;;;-81
2021/12/04 02:04:50;;;;;;;;;;;;;;;4.09;92.4502;99940.42;;;;-81
2021/12/04 02:07:03;;;;;;;29.5;10.2;;;;;;;;;;;;;-81
2021/12/04 02:09:50;;;;;;;;;;;;;;;4.09;92.36328;99938.72;;;;-80
2021/12/04 02:14:51;;;;;;;;;;;;;;;4.09;92.30957;99945.69;;;;-81
2021/12/04 02:19:53;;;;;;;;;;;;;;;4.11;92.18262;99945.02;;;;-81
2021/12/04 02:24:50;;;;;;;;;;;;;;;4.11;92.29102;99943.55;;;;-81
2021/12/04 02:29:51;;;;;;;;;;;;;;;4.11;92.16113;99940.81;;;;-81
2021/12/04 02:34:50;;;;;;;;;;;;;;;4.11;92.19336;99926.83;;;;-82
2021/12/04 02:37:00;;;;;;;34.6;12.1;;;;;;;;;;;;;-81
2021/12/04 02:39:58;;;;;;;;;;;;;;;4.11;92.37793;99924.97;;;;-81
2021/12/04 02:44:52;;;;;;;;;;;;;;;4.12;92.1543;99926.28;;;;-80
2021/12/04 02:49:50;;;;;;;;;;;;;;;4.12;92.04492;99920.02;;;;-80
2021/12/04 02:54:51;;;;;;;;;;;;;;;4.13;92.37109;99913.82;;;;-81
2021/12/04 02:59:50;;;;;;;;;;;;;;;4.13;92.31836;99911.8;;;;-81
2021/12/04 03:04:51;;;;;;;;;;;;;;;4.14;92.5791;99909.22;;;;-80
2021/12/04 03:06:59;;;;;;;36.2;12;;;;;;;;;;;;;-80
2021/12/04 03:09:51;;;;;;;;;;;;;;;4.14;92.67676;99904.05;;;;-81
2021/12/04 03:14:50;;;;;;;;;;;;;;;4.15;92.4209;99898.06;;;;-81
2021/12/04 03:19:54;;;;;;;;;;;;;;;4.15;92.37695;99901.49;;;;-80
2021/12/04 03:24:50;;;;;;;;;;;;;;;4.16;92.30078;99899.19;;;;-81
2021/12/04 03:29:55;;;;;;;;;;;;;;;4.16;92.27051;99890.44;;;;-81
2021/12/04 03:44:50;;;;;;;;;;;;;;;4.17;92.54395;99856.38;;;;-81
2021/12/04 03:49:54;;;;;;;;;;;;;;;4.18;92.44824;99852.72;;;;-80
2021/12/04 03:54:50;;;;;;;;;;;;;;;4.18;92.59961;99858.34;;;;-80
2021/12/04 03:59:52;;;;;;;;;;;;;;;4.19;92.61328;99856.52;;;;-82
2021/12/04 04:04:50;;;;;;;;;;;;;;;4.19;92.47168;99861.63;;;;-81
2021/12/04 04:06:58;;;;;;;42;12.4;;;;;;;;;;;;;-82
2021/12/04 04:09:52;;;;;;;;;;;;;;;4.2;92.4082;99856.08;;;;-80
2021/12/04 04:14:50;;;;;;;;;;;;;;;4.21;92.47363;99848.6;;;;-80
2021/12/04 04:19:53;;;;;;;;;;;;;;;4.21;92.39063;99844.85;;;;-81
2021/12/04 04:24:50;;;;;;;;;;;;;;;4.21;92.23828;99841.75;;;;-80
2021/12/04 04:29:52;;;;;;;;;;;;;;;4.22;92.44531;99835.97;;;;-80
2021/12/04 04:34:54;;;;;;;;;;;;;;;4.22;92.57715;99830.29;;;;-81
2021/12/04 04:37:09;;;;;;;41.4;12.8;;;;;;;;;;;;;-80
2021/12/04 05:00:05;;;;;;;;;;;;;;;4.25;92.41992;99819.27;;;;-81
2021/12/04 05:14:55;;;;;;;;;;;;;;;4.26;92.20508;99803.41;;;;-81
2021/12/04 05:19:53;;;;;;;;;;;;;;;4.27;92.27148;99804.53;;;;-81
2021/12/04 05:24:50;;;;;;;;;;;;;;;4.27;92.16309;99802.89;;;;-81
2021/12/04 05:29:50;;;;;;;;;;;;;;;4.28;92.07813;99805.52;;;;-81
2021/12/04 05:34:50;;;;;;;;;;;;;;;4.28;92.1875;99793.95;;;;-80
2021/12/04 05:36:54;;;;;;;39.5;11.5;;;;;;;;;;;;;-81
2021/12/04 05:39:50;;;;;;;;;;;;;;;4.29;92.06738;99789.16;;;;-80
2021/12/04 05:44:50;;;;;;;;;;;;;;;4.29;91.98242;99784.06;;;;-81
2021/12/04 05:49:58;;;;;;;;;;;;;;;4.29;92.05859;99787.33;;;;-81
2021/12/04 05:55:09;;;;;;;;;;;;;;;4.3;91.98438;99778.81;;;;-81
2021/12/04 05:59:50;;;;;;;;;;;;;;;4.3;92.0498;99776.07;;;;-81
2021/12/04 06:04:50;;;;;;;;;;;;;;;4.29;92.01465;99775.17;;;;-81
2021/12/04 06:06:53;;;;;;;41.9;11.4;;;;;;;;;;;;;-81
2021/12/04 06:09:50;;;;;;;;;;;;;;;4.31;91.95215;99780.39;;;;-82
2021/12/04 06:14:50;;;;;;;;;;;;;;;4.31;92.04102;99776.99;;;;-81
2021/12/04 06:24:50;;;;;;;;;;;;;;;4.31;92.0498;99766.5;;;;-81
2021/12/04 06:29:50;;;;;;;;;;;;;;;4.31;92.08398;99780.48;;;;-81
2021/12/04 06:34:50;;;;;;;;;;;;;;;4.31;92.10547;99775.42;;;;-82
2021/12/04 06:36:52;;;;;;;34;11.3;;;;;;;;;;;;;-81
2021/12/04 06:39:50;;;;;;;;;;;;;;;4.31;92.03223;99781.02;;;;-81
2021/12/04 06:44:53;;;;;;;;;;;;;;;4.31;92.02832;99770.09;;;;-81
2021/12/04 06:49:52;;;;;;;;;;;;;;;4.31;92.11719;99768.17;;;;-81
2021/12/04 06:54:55;;;;;;;;;;;;;;;4.31;92.12793;99765.78;;;;-80
2021/12/04 07:00:06;;;;;;;;;;;;;;;4.31;92.08594;99771.7;;;;-79
2021/12/04 07:04:50;;;;;;;;;;;;;;;4.31;91.99902;99772.52;;;;-80
2021/12/04 07:06:52;;;;;;;37.1;10.9;;;;;;;;;;;;;-80
2021/12/04 07:09:50;;;;;;;;;;;;;;;4.32;92.14063;99776.22;;;;-81
2021/12/04 07:14:50;;;;;;;;;;;;;;;4.31;92.43164;99757.22;;;;-80
2021/12/04 07:19:50;;;;;;;;;;;;;;;4.3;92.46289;99747.94;;;;-81
2021/12/04 07:24:50;;;;;;;;;;;;;;;4.31;92.44043;99744.94;;;;-81
2021/12/04 07:29:54;;;;;;;;;;;;;;;4.3;92.61426;99737.31;;;;-81
2021/12/04 07:34:50;;;;;;;;;;;;;;;4.31;92.625;99741.66;;;;-80
2021/12/04 07:36:53;;;;;;;37.4;10.2;;;;;;;;;;;;;-80
2021/12/04 07:39:50;;;;;;;;;;;;;;;4.31;92.58398;99742.26;;;;-80
2021/12/04 07:44:51;;;;;;;;;;;;;;;4.31;92.61816;99731.02;;;;-80
2021/12/04 07:49:56;;;;;;;;;;;;;;;4.32;92.37988;99730.23;;;;-80
2021/12/04 07:54:50;;;;;;;;;;;;;;;4.32;92.40332;99729.88;;;;-80
2021/12/04 07:59:50;;;;;;;;;;;;;;;4.32;92.4248;99725.8;;;;-79
2021/12/04 08:04:50;;;;;;;;;;;;;;;4.33;92.50098;99717.17;;;;-80
2021/12/04 08:06:50;;;;;;;41.2;10.9;;;;;;;;;;;;;-81
2021/12/04 08:09:50;;;;;;;;;;;;;;;4.32;92.82715;99704.82;;;;-80
2021/12/04 08:14:51;;;;;;;;;;;;;;;4.33;92.91406;99688.91;;;;-80
2021/12/04 08:19:50;;;;;;;;;;;;;;;4.34;92.80664;99706.5;;;;-80
2021/12/04 08:24:50;;;;;;;;;;;;;;;4.35;92.74609;99698.15;;;;-80
2021/12/04 08:29:51;;;;;;;;;;;;;;;4.36;92.84375;99683.38;;;;-81
2021/12/04 08:34:50;;;;;;;;;;;;;;;4.38;92.99121;99700.56;;;;-81
2021/12/04 08:36:51;;;;;;;34.5;10;;;;;;;;;;;;;-81
2021/12/04 08:39:50;;;;;;;;;;;;;;;4.41;92.93359;99701.17;;;;-82
2021/12/04 08:44:51;;;;;;;;;;;;;;;4.43;92.7832;99687.88;;;;-80
2021/12/04 08:49:50;;;;;;;;;;;;;;;4.44;92.74316;99690.64;;;;-81
2021/12/04 08:54:50;;;;;;;;;;;;;;;4.47;92.64941;99687.59;;;;-81
2021/12/04 08:59:52;;;;;;;;;;;;;;;4.48;92.69727;99701.55;;;;-80
2021/12/04 09:04:50;;;;;;;;;;;;;;;4.49;92.60156;99693.2;;;;-81
2021/12/04 09:06:49;;;;;;;34.4;10.5;;;;;;;;;;;;;-80
2021/12/04 09:09:55;;;;;;;;;;;;;;;4.5;92.60352;99684.64;;;;-80
2021/12/04 09:14:50;;;;;;;;;;;;;;;4.51;92.84375;99683.67;;;;-80
2021/12/04 09:19:50;;;;;;;;;;;;;;;4.52;92.63086;99672.53;;;;-80
2021/12/04 09:24:53;;;;;;;;;;;;;;;4.53;92.73926;99684.34;;;;-79
2021/12/04 09:30:04;;;;;;;;;;;;;;;4.53;92.54395;99665.48;;;;-80
2021/12/04 09:35:09;;;;;;;;;;;;;;;4.54;92.71094;99668.69;;;;-80
2021/12/04 10:31:59;;;;;;;;;;;;;;;4.67;92.37891;99617.88;;;;-81
2021/12/04 10:34:50;;;;;;;;;;;;;;;4.7;92.29785;99616.45;;;;-80
2021/12/04 10:36:45;;;;;;;37;10.8;;;;;;;;;;;;;-80
2021/12/04 10:39:50;;;;;;;;;;;;;;;4.7;92.29785;99607.27;;;;-80
2021/12/04 10:44:54;;;;;;;;;;;;;;;4.69;92.28711;99583.66;;;;-81
2021/12/04 10:49:59;;;;;;;;;;;;;;;4.71;92.32227;99585.1;;;;-82
2021/12/04 10:54:52;;;;;;;;;;;;;;;4.72;92.29102;99586.91;;;;-80
2021/12/04 10:59:56;;;;;;;;;;;;;;;4.73;92.31445;99578.8;;;;-81
2021/12/04 11:04:53;;;;;;;;;;;;;;;4.74;92.34961;99567.79;;;;-81
2021/12/04 11:07:04;;;;;;;30.4;9.9;;;;;;;;;;;;;-83
2021/12/04 11:40:06;;;;;;;;;;;;;;;4.77;92.42285;99541.58;;;;-81
2021/12/04 11:44:55;;;;;;;;;;;;;;;4.78;92.44434;99543.05;;;;-81
2021/12/04 11:49:50;;;;;;;;;;;;;;;4.79;92.41699;99528.41;;;;-82
2021/12/04 11:54:52;;;;;;;;;;;;;;;4.8;92.36328;99527.4;;;;-82
2021/12/04 11:59:51;;;;;;;;;;;;;;;4.78;92.30469;99526.34;;;;-81
2021/12/04 12:04:51;;;;;;;;;;;;;;;4.8;92.23242;99524.52;;;;-81
2021/12/04 12:06:44;;;;;;;23.1;8;;;;;;;;;;;;;-80
2021/12/04 12:09:51;;;;;;;;;;;;;;;4.8;92.23242;99514.38;;;;-81
2021/12/04 12:14:54;;;;;;;;;;;;;;;4.79;92.30664;99503.75;;;;-80
2021/12/04 12:19:58;;;;;;;;;;;;;;;4.8;92.25391;99504.31;;;;-82
2021/12/04 12:25:11;;;;;;;;;;;;;;;4.79;92.2959;99504.2;;;;-82
2021/12/04 12:36:45;;;;;;;23.1;8.2;;;;;;;;;;;;;-82
2021/12/04 12:40:02;;;;;;;;;;;;;;;4.77;92.19434;99500.73;;;;-81
2021/12/04 12:45:12;;;;;;;;;;;;;;;4.77;92.18262;99496.22;;;;-81
2021/12/04 12:49:50;;;;;;;;;;;;;;;4.77;91.9873;99485.7;;;;-82
2021/12/04 12:54:55;;;;;;;;;;;;;;;4.77;91.90039;99484.36;;;;-80
2021/12/04 13:11:36;;;;;;;;;;;;;;;4.76;91.96387;99485.03;;;;-81
2021/12/04 13:14:55;;;;;;;;;;;;;;;4.75;91.75488;99489.13;;;;-81
2021/12/04 13:19:51;;;;;;;;;;;;;;;4.75;91.78516;99484.25;;;;-80
2021/12/04 13:24:51;;;;;;;;;;;;;;;4.74;91.73145;99481.17;;;;-80
2021/12/04 13:29:51;;;;;;;;;;;;;;;4.74;91.81836;99479.44;;;;-81
2021/12/04 13:34:51;;;;;;;;;;;;;;;4.73;91.8252;99471.23;;;;-79
2021/12/04 13:36:41;;;;;;;28.9;8.4;;;;;;;;;;;;;-80
2021/12/04 13:39:50;;;;;;;;;;;;;;;4.74;91.75293;99463.09;;;;-80
2021/12/04 13:44:52;;;;;;;;;;;;;;;4.74;91.69824;99462.7;;;;-81
2021/12/04 13:50:00;;;;;;;;;;;;;;;4.74;91.93652;99459.39;;;;-80
2021/12/04 13:54:52;;;;;;;;;;;;;;;4.73;91.97754;99459.2;;;;-80
2021/12/04 13:59:50;;;;;;;;;;;;;;;4.72;91.92285;99471.58;;;;-81
2021/12/04 14:04:57;;;;;;;;;;;;;;;4.74;91.83984;99478.3;;;;-79
2021/12/04 14:06:50;;;;;;;24.7;8.3;;;;;;;;;;;;;-80
2021/12/04 14:09:51;;;;;;;;;;;;;;;4.74;91.82715;99476.89;;;;-79
2021/12/04 14:14:50;;;;;;;;;;;;;;;4.74;91.81641;99476.56;;;;-80
2021/12/04 14:19:51;;;;;;;;;;;;;;;4.73;91.84668;99474.8;;;;-80
2021/12/04 14:24:55;;;;;;;;;;;;;;;4.72;91.79297;99469.3;;;;-81
2021/12/04 14:29:52;;;;;;;;;;;;;;;4.72;91.73633;99471.88;;;;-81
2021/12/04 14:34:50;;;;;;;;;;;;;;;4.71;91.67969;99473.28;;;;-80
2021/12/04 14:36:39;;;;;;;19.1;5.8;;;;;;;;;;;;;-80
2021/12/04 14:39:51;;;;;;;;;;;;;;;4.7;91.60254;99473.7;;;;-78
2021/12/04 14:44:54;;;;;;;;;;;;;;;4.68;91.54395;99476.19;;;;-79
2021/12/04 14:49:52;;;;;;;;;;;;;;;4.68;91.4873;99478.14;;;;-80
2021/12/04 14:54:51;;;;;;;;;;;;;;;4.67;91.4873;99480.49;;;;-80
2021/12/04 15:00:02;;;;;;;;;;;;;;;4.66;91.47461;99481.38;;;;-82
2021/12/04 15:04:51;;;;;;;;;;;;;;;4.66;91.41797;99488.11;;;;-80
2021/12/04 15:06:40;;;;;;;12.7;4.7;;;;;;;;;;;;;-80
2021/12/04 15:09:50;;;;;;;;;;;;;;;4.65;91.33984;99497.32;;;;-80
2021/12/04 15:14:50;;;;;;;;;;;;;;;4.64;91.30566;99507.48;;;;-80
2021/12/04 15:19:53;;;;;;;;;;;;;;;4.63;91.22754;99509.83;;;;-81
2021/12/04 15:24:52;;;;;;;;;;;;;;;4.62;91.23633;99514.44;;;;-80
2021/12/04 15:29:53;;;;;;;;;;;;;;;4.62;91.22754;99515.19;;;;-82
2021/12/04 15:34:53;;;;;;;;;;;;;;;4.61;91.21289;99513.78;;;;-81
2021/12/04 15:36:39;;;;;;;11.8;4.3;;;;;;;;;;;;;-80
2021/12/04 15:39:52;;;;;;;;;;;;;;;4.61;91.23438;99522.34;;;;-80
2021/12/04 15:45:05;;;;;;;;;;;;;;;4.59;91.16797;99522.2;;;;-81
2021/12/04 15:55:01;;;;;;;;;;;;;;;4.59;91.16602;99528.88;;;;-82
2021/12/04 15:59:57;;;;;;;;;;;;;;;4.59;91.17676;99532.8;;;;-83
2021/12/04 16:04:51;;;;;;;;;;;;;;;4.58;91.12891;99532.43;;;;-82
2021/12/04 16:06:47;;;;;;;12.5;3.7;;;;;;;;;;;;;-81
2021/12/04 16:09:52;;;;;;;;;;;;;;;4.58;91.17285;99547.47;;;;-80
2021/12/04 16:14:54;;;;;;;;;;;;;;;4.56;91.14941;99548.41;;;;-80
2021/12/04 16:20:00;;;;;;;;;;;;;;;4.56;91.13574;99552.48;;;;-80
2021/12/04 16:24:54;;;;;;;;;;;;;;;4.54;91.15625;99555.09;;;;-81
2021/12/04 16:29:55;;;;;;;;;;;;;;;4.53;91.15234;99561.86;;;;-80
2021/12/04 16:35:17;;;;;;;;;;;;;;;4.51;91.12695;99562.34;;;;-81
2021/12/04 16:36:55;;;;;;;9.1;2.7;;;;;;;;;;;;;-80
2021/12/04 16:39:52;;;;;;;;;;;;;;;4.5;91.11426;99562.78;;;;-81
2021/12/04 16:44:50;;;;;;;;;;;;;;;4.47;91.08594;99565.06;;;;-79
2021/12/04 16:49:50;;;;;;;;;;;;;;;4.46;91.0498;99574.17;;;;-81
2021/12/04 16:54:59;;;;;;;;;;;;;;;4.44;91.03516;99588.64;;;;-81
2021/12/04 16:59:51;;;;;;;;;;;;;;;4.42;91.00098;99600.42;;;;-81
2021/12/04 17:04:50;;;;;;;;;;;;;;;4.4;90.96191;99596.48;;;;-81
2021/12/04 17:07:16;;;;;;;6;2;;;;;;;;;;;;;-81
2021/12/04 17:09:57;;;;;;;;;;;;;;;4.37;90.94531;99596.37;;;;-82
2021/12/04 17:14:50;;;;;;;;;;;;;;;4.35;90.90918;99603.31;;;;-82
2021/12/04 17:19:51;;;;;;;;;;;;;;;4.31;90.83398;99596.2;;;;-81
2021/12/04 17:24:50;;;;;;;;;;;;;;;4.29;90.85254;99598.23;;;;-81
2021/12/04 17:29:52;;;;;;;;;;;;;;;4.28;90.83984;99602.45;;;;-81
2021/12/04 17:34:50;;;;;;;;;;;;;;;4.27;90.87012;99606.16;;;;-82
2021/12/04 17:36:36;;;;;;;5.2;1.4;;;;;;;;;;;;;-80
2021/12/04 17:39:53;;;;;;;;;;;;;;;4.27;90.88086;99610.94;;;;-80
2021/12/04 17:44:50;;;;;;;;;;;;;;;4.27;90.8916;99614.1;;;;-81
2021/12/04 17:49:50;;;;;;;;;;;;;;;4.28;90.89355;99637.31;;;;-81
2021/12/04 17:54:50;;;;;;;;;;;;;;;4.28;90.98047;99631.07;;;;-80
2021/12/04 17:59:51;;;;;;;;;;;;;;;4.29;90.96973;99629.05;;;;-80
2021/12/04 18:05:00;;;;;;;;;;;;;;;4.27;91.00098;99624.14;;;;-80
2021/12/04 18:06:33;;;;;;;4.6;1.4;;;;;;;;;;;;;-80
2021/12/04 18:09:51;;;;;;;;;;;;;;;4.28;90.96973;99624.17;;;;-81
2021/12/04 18:14:51;;;;;;;;;;;;;;;4.27;90.94629;99621.85;;;;-80
2021/12/04 18:19:50;;;;;;;;;;;;;;;4.26;90.91016;99625.14;;;;-80
2021/12/04 18:24:50;;;;;;;;;;;;;;;4.24;90.8623;99632.28;;;;-80
2021/12/04 18:29:51;;;;;;;;;;;;;;;4.21;90.83496;99643.52;;;;-80
2021/12/04 18:34:50;;;;;;;;;;;;;;;4.19;90.80957;99642.79;;;;-80
2021/12/04 18:36:31;;;;;;;4.9;1.2;;;;;;;;;;;;;-79
2021/12/04 18:39:50;;;;;;;;;;;;;;;4.18;90.81836;99635.46;;;;-80
2021/12/04 18:44:52;;;;;;;;;;;;;;;4.17;90.83789;99643.53;;;;-81
2021/12/04 18:49:53;;;;;;;;;;;;;;;4.17;90.84961;99642.77;;;;-80
2021/12/04 18:54:52;;;;;;;;;;;;;;;4.16;90.8125;99648.38;;;;-79
2021/12/04 18:59:50;;;;;;;;;;;;;;;4.14;90.76563;99651.47;;;;-80
2021/12/04 19:04:54;;;;;;;;;;;;;;;4.12;90.75293;99642.73;;;;-80
2021/12/04 19:06:33;;;;;;;4.6;1.3;;;;;;;;;;;;;-79
2021/12/04 19:09:50;;;;;;;;;;;;;;;4.11;90.79199;99633.87;;;;-81
2021/12/04 19:14:50;;;;;;;;;;;;;;;4.11;90.86621;99637.03;;;;-81
2021/12/04 19:19:50;;;;;;;;;;;;;;;4.11;90.88965;99645.14;;;;-80
2021/12/04 19:24:54;;;;;;;;;;;;;;;4.11;90.90137;99643.67;;;;-81
2021/12/04 19:54:59;;;;;;;;;;;;;;;4.05;90.80273;99652.64;;;;-80
2021/12/04 19:59:52;;;;;;;;;;;;;;;4.04;90.81152;99647.73;;;;-81
2021/12/04 20:04:59;;;;;;;;;;;;;;;4.04;90.82031;99644.16;;;;-80
2021/12/04 20:06:39;;;;;;;3.3;1;;;;;;;;;;;;;-80
2021/12/04 20:14:51;;;;;;;;;;;;;;;4.02;90.77539;99640.36;;;;-82
2021/12/04 20:19:54;;;;;;;;;;;;;;;4.01;90.76074;99645.38;;;;-81
2021/12/04 20:24:55;;;;;;;;;;;;;;;3.97;90.66602;99639.37;;;;-81
2021/12/04 20:30:04;;;;;;;;;;;;;;;3.92;90.64551;99638.18;;;;-81
2021/12/04 20:40:29;;;;;;;;;;;;;;;3.86;90.57617;99635.7;;;;-81
2021/12/04 21:50:13;;;;;;;;;;;;;;;3.97;91.31738;99644.49;;;;-82
2021/12/04 21:55:28;;;;;;;;;;;;;;;4;91.41016;99640.5;;;;-82
2021/12/04 22:10:14;;;;;;;;;;;;;;;4.04;91.53906;99648.55;;;;-81
2021/12/04 22:15:44;;;;;;;;;;;;;;;4.05;91.51758;99656;;;;-81
2021/12/04 23:00:33;;;;;;;;;;;;;;;4.1;91.49609;99668.63;;;;-81
2021/12/04 23:13:58;;;;;;;;;;;;;;;4.13;91.7959;99701.25;;;;-81
2021/12/04 23:34:10;;;;;;;;;;;;;;;4.14;91.71094;99697.7;;;;-81
2021/12/04 23:36:36;;;;;;;4.4;1.1;;;;;;;;;;;;;-81
